sensor_id;sensor_type;location;lat;lon;timestamp;pressure;altitude;pressure_sealevel;temperature;humidity
21395;BME280;10858;42.714;23.180;2023-05-10T00:00:53;94640.28;;;10.54;98.68
21395;BME280;10858;42.714;23.180;2023-05-10T00:03:19;94639.25;;;10.46;99.92
21395;BME280;10858;42.714;23.180;2023-05-10T00:05:45;94637.72;;;10.32;100.00
21395;BME280;10858;42.714;23.180;2023-05-10T00:08:12;94634.41;;;10.51;99.47
21395;BME280;10858;42.714;23.180;2023-05-10T00:10:38;94629.09;;;10.30;100.00
21395;BME280;10858;42.714;23.180;2023-05-10T00:13:04;94625.91;;;10.36;100.00
21395;BME280;10858;42.714;23.180;2023-05-10T00:15:30;94632.59;;;10.51;99.51
21395;BME280;10858;42.714;23.180;2023-05-10T00:17:57;94627.84;;;10.34;99.77
21395;BME280;10858;42.714;23.180;2023-05-10T00:20:23;94631.28;;;10.25;100.00
21395;BME280;10858;42.714;23.180;2023-05-10T00:22:49;94627.41;;;10.29;100.00
21395;BME280;10858;42.714;23.180;2023-05-10T00:25:15;94616.28;;;10.56;98.72
21395;BME280;10858;42.714;23.180;2023-05-10T00:27:42;94618.47;;;10.51;98.61
21395;BME280;10858;42.714;23.180;2023-05-10T00:30:08;94619.25;;;10.62;97.77
21395;BME280;10858;42.714;23.180;2023-05-10T00:32:34;94622.56;;;10.55;97.98
21395;BME280;10858;42.714;23.180;2023-05-10T00:35:00;94615.38;;;10.66;97.56
21395;BME280;10858;42.714;23.180;2023-05-10T00:37:27;94616.06;;;10.68;97.07
21395;BME280;10858;42.714;23.180;2023-05-10T00:39:53;94613.88;;;10.53;97.50
21395;BME280;10858;42.714;23.180;2023-05-10T00:42:19;94612.06;;;10.33;98.27
21395;BME280;10858;42.714;23.180;2023-05-10T00:44:45;94608.28;;;10.14;99.00
21395;BME280;10858;42.714;23.180;2023-05-10T00:47:12;94606.34;;;10.16;99.40
21395;BME280;10858;42.714;23.180;2023-05-10T00:49:38;94600.53;;;10.22;99.13
21395;BME280;10858;42.714;23.180;2023-05-10T00:52:05;94605.66;;;10.03;99.37
21395;BME280;10858;42.714;23.180;2023-05-10T00:54:31;94598.91;;;10.10;98.83
21395;BME280;10858;42.714;23.180;2023-05-10T00:56:58;94599.72;;;10.22;98.49
21395;BME280;10858;42.714;23.180;2023-05-10T00:59:24;94596.75;;;10.15;98.68
21395;BME280;10858;42.714;23.180;2023-05-10T01:01:51;94604.59;;;9.95;98.88
21395;BME280;10858;42.714;23.180;2023-05-10T01:04:18;94609.63;;;9.77;100.00
21395;BME280;10858;42.714;23.180;2023-05-10T01:06:45;94611.91;;;9.71;100.00
21395;BME280;10858;42.714;23.180;2023-05-10T01:09:12;94604.66;;;9.84;100.00
21395;BME280;10858;42.714;23.180;2023-05-10T01:11:38;94595.22;;;10.02;99.52
21395;BME280;10858;42.714;23.180;2023-05-10T01:14:06;94594.72;;;9.97;99.69
21395;BME280;10858;42.714;23.180;2023-05-10T01:16:35;94594.81;;;10.06;98.41
21395;BME280;10858;42.714;23.180;2023-05-10T01:19:03;94595.88;;;9.83;99.28
21395;BME280;10858;42.714;23.180;2023-05-10T01:21:49;94595.38;;;9.78;100.00
21395;BME280;10858;42.714;23.180;2023-05-10T01:36:08;94576.94;;;9.88;98.94
21395;BME280;10858;42.714;23.180;2023-05-10T01:38:40;94571.53;;;9.89;98.32
21395;BME280;10858;42.714;23.180;2023-05-10T01:46:36;94575.75;;;9.81;98.38
21395;BME280;10858;42.714;23.180;2023-05-10T01:49:08;94566.72;;;9.83;97.43
21395;BME280;10858;42.714;23.180;2023-05-10T01:52:06;94576.75;;;9.80;97.54
21395;BME280;10858;42.714;23.180;2023-05-10T01:54:34;94586.41;;;9.70;97.25
21395;BME280;10858;42.714;23.180;2023-05-10T01:57:05;94581.75;;;9.51;98.64
21395;BME280;10858;42.714;23.180;2023-05-10T01:59:34;94577.31;;;9.52;98.45
21395;BME280;10858;42.714;23.180;2023-05-10T02:02:07;94577.81;;;9.46;98.85
21395;BME280;10858;42.714;23.180;2023-05-10T02:04:38;94579.31;;;9.59;98.60
21395;BME280;10858;42.714;23.180;2023-05-10T02:07:06;94580.28;;;9.58;98.57
21395;BME280;10858;42.714;23.180;2023-05-10T02:09:35;94576.53;;;9.61;97.87
21395;BME280;10858;42.714;23.180;2023-05-10T02:12:04;94582.25;;;9.45;97.83
21395;BME280;10858;42.714;23.180;2023-05-10T02:14:34;94580.91;;;9.51;98.02
21395;BME280;10858;42.714;23.180;2023-05-10T02:17:01;94577.59;;;9.69;96.89
21395;BME280;10858;42.714;23.180;2023-05-10T02:19:29;94577.88;;;9.55;96.58
21395;BME280;10858;42.714;23.180;2023-05-10T02:21:57;94570.53;;;9.59;97.12
21395;BME280;10858;42.714;23.180;2023-05-10T02:24:25;94573.69;;;9.53;96.62
21395;BME280;10858;42.714;23.180;2023-05-10T02:26:54;94566.63;;;9.31;97.37
21395;BME280;10858;42.714;23.180;2023-05-10T02:29:25;94566.34;;;9.45;96.91
21395;BME280;10858;42.714;23.180;2023-05-10T02:31:54;94567.31;;;9.44;97.20
21395;BME280;10858;42.714;23.180;2023-05-10T02:34:22;94573.13;;;9.16;97.10
21395;BME280;10858;42.714;23.180;2023-05-10T02:36:50;94572.94;;;8.86;97.07
21395;BME280;10858;42.714;23.180;2023-05-10T02:39:19;94571.38;;;8.83;96.71
21395;BME280;10858;42.714;23.180;2023-05-10T02:41:47;94568.59;;;9.07;95.60
21395;BME280;10858;42.714;23.180;2023-05-10T02:44:17;94573.66;;;8.88;93.66
21395;BME280;10858;42.714;23.180;2023-05-10T02:46:44;94573.63;;;8.54;93.34
21395;BME280;10858;42.714;23.180;2023-05-10T02:49:11;94581.06;;;8.38;93.69
21395;BME280;10858;42.714;23.180;2023-05-10T02:51:41;94578.28;;;8.29;92.64
21395;BME280;10858;42.714;23.180;2023-05-10T02:54:11;94571.78;;;7.98;92.81
21395;BME280;10858;42.714;23.180;2023-05-10T02:56:47;94573.97;;;8.04;93.17
21395;BME280;10858;42.714;23.180;2023-05-10T02:59:16;94574.75;;;8.17;92.59
21395;BME280;10858;42.714;23.180;2023-05-10T03:01:42;94567.09;;;8.25;92.64
21395;BME280;10858;42.714;23.180;2023-05-10T03:04:09;94577.66;;;8.25;92.12
21395;BME280;10858;42.714;23.180;2023-05-10T03:06:35;94579.47;;;8.25;92.65
21395;BME280;10858;42.714;23.180;2023-05-10T03:09:02;94573.41;;;8.23;91.88
21395;BME280;10858;42.714;23.180;2023-05-10T03:14:33;94576.56;;;8.28;92.18
21395;BME280;10858;42.714;23.180;2023-05-10T03:17:25;94575.66;;;8.51;90.97
21395;BME280;10858;42.714;23.180;2023-05-10T03:19:57;94580.63;;;8.55;90.86
21395;BME280;10858;42.714;23.180;2023-05-10T03:22:41;94583.00;;;8.58;91.13
21395;BME280;10858;42.714;23.180;2023-05-10T03:25:11;94591.41;;;8.52;91.43
21395;BME280;10858;42.714;23.180;2023-05-10T03:27:40;94584.66;;;8.37;91.29
21395;BME280;10858;42.714;23.180;2023-05-10T03:30:12;94586.13;;;8.41;91.76
21395;BME280;10858;42.714;23.180;2023-05-10T03:32:38;94583.81;;;8.37;91.11
21395;BME280;10858;42.714;23.180;2023-05-10T03:35:09;94594.03;;;8.41;91.27
21395;BME280;10858;42.714;23.180;2023-05-10T03:37:36;94587.56;;;8.22;91.11
21395;BME280;10858;42.714;23.180;2023-05-10T03:40:03;94586.22;;;8.05;90.87
21395;BME280;10858;42.714;23.180;2023-05-10T03:42:29;94591.16;;;8.33;90.60
21395;BME280;10858;42.714;23.180;2023-05-10T03:44:56;94594.69;;;8.21;91.53
21395;BME280;10858;42.714;23.180;2023-05-10T03:47:22;94591.72;;;8.02;92.31
21395;BME280;10858;42.714;23.180;2023-05-10T03:49:48;94597.25;;;7.99;92.05
21395;BME280;10858;42.714;23.180;2023-05-10T03:52:15;94603.28;;;8.01;93.63
21395;BME280;10858;42.714;23.180;2023-05-10T03:54:41;94605.19;;;7.99;93.11
21395;BME280;10858;42.714;23.180;2023-05-10T03:57:07;94601.16;;;7.94;92.78
21395;BME280;10858;42.714;23.180;2023-05-10T03:59:33;94611.06;;;8.26;92.59
21395;BME280;10858;42.714;23.180;2023-05-10T04:01:59;94610.59;;;8.32;92.47
21395;BME280;10858;42.714;23.180;2023-05-10T04:04:26;94614.94;;;8.44;91.18
21395;BME280;10858;42.714;23.180;2023-05-10T04:06:52;94618.19;;;8.37;91.56
21395;BME280;10858;42.714;23.180;2023-05-10T04:09:18;94616.75;;;8.44;91.61
21395;BME280;10858;42.714;23.180;2023-05-10T04:11:44;94620.69;;;8.38;91.04
21395;BME280;10858;42.714;23.180;2023-05-10T04:14:10;94616.56;;;8.23;91.85
21395;BME280;10858;42.714;23.180;2023-05-10T04:16:37;94617.63;;;8.21;91.24
21395;BME280;10858;42.714;23.180;2023-05-10T04:19:03;94620.00;;;8.24;92.06
21395;BME280;10858;42.714;23.180;2023-05-10T04:21:29;94618.56;;;8.20;91.31
21395;BME280;10858;42.714;23.180;2023-05-10T04:23:56;94626.78;;;8.28;91.78
21395;BME280;10858;42.714;23.180;2023-05-10T04:26:22;94622.28;;;8.17;92.33
21395;BME280;10858;42.714;23.180;2023-05-10T04:28:48;94629.13;;;8.43;92.39
21395;BME280;10858;42.714;23.180;2023-05-10T04:31:14;94629.34;;;8.40;91.64
21395;BME280;10858;42.714;23.180;2023-05-10T04:33:41;94627.31;;;8.44;91.78
21395;BME280;10858;42.714;23.180;2023-05-10T04:36:07;94627.72;;;8.62;91.63
21395;BME280;10858;42.714;23.180;2023-05-10T04:38:33;94632.34;;;8.82;91.74
21395;BME280;10858;42.714;23.180;2023-05-10T04:41:07;94626.50;;;8.54;91.13
21395;BME280;10858;42.714;23.180;2023-05-10T04:43:33;94634.25;;;8.91;91.13
21395;BME280;10858;42.714;23.180;2023-05-10T04:46:00;94635.66;;;8.73;90.68
21395;BME280;10858;42.714;23.180;2023-05-10T04:48:26;94635.78;;;8.82;91.91
21395;BME280;10858;42.714;23.180;2023-05-10T04:50:52;94629.19;;;8.77;91.49
21395;BME280;10858;42.714;23.180;2023-05-10T04:53:19;94638.06;;;8.65;92.11
21395;BME280;10858;42.714;23.180;2023-05-10T04:55:45;94641.97;;;9.05;92.42
21395;BME280;10858;42.714;23.180;2023-05-10T04:58:12;94633.53;;;9.22;90.10
21395;BME280;10858;42.714;23.180;2023-05-10T05:00:38;94638.34;;;9.06;89.92
21395;BME280;10858;42.714;23.180;2023-05-10T05:03:05;94641.97;;;9.05;90.33
21395;BME280;10858;42.714;23.180;2023-05-10T05:05:31;94646.03;;;9.42;90.60
21395;BME280;10858;42.714;23.180;2023-05-10T05:07:58;94642.81;;;9.27;89.25
21395;BME280;10858;42.714;23.180;2023-05-10T05:10:24;94645.31;;;9.29;90.31
21395;BME280;10858;42.714;23.180;2023-05-10T05:12:50;94642.19;;;9.02;89.68
21395;BME280;10858;42.714;23.180;2023-05-10T05:15:16;94640.03;;;9.07;90.08
21395;BME280;10858;42.714;23.180;2023-05-10T05:17:43;94646.16;;;9.07;90.53
21395;BME280;10858;42.714;23.180;2023-05-10T05:20:10;94651.44;;;8.85;89.85
21395;BME280;10858;42.714;23.180;2023-05-10T05:22:37;94647.00;;;8.86;91.87
21395;BME280;10858;42.714;23.180;2023-05-10T05:25:03;94650.13;;;9.13;90.92
21395;BME280;10858;42.714;23.180;2023-05-10T05:27:30;94656.84;;;9.28;89.67
21395;BME280;10858;42.714;23.180;2023-05-10T05:29:57;94657.56;;;9.30;90.37
21395;BME280;10858;42.714;23.180;2023-05-10T05:32:24;94658.19;;;9.56;89.59
21395;BME280;10858;42.714;23.180;2023-05-10T05:34:51;94655.78;;;9.41;89.91
21395;BME280;10858;42.714;23.180;2023-05-10T05:37:19;94656.47;;;9.55;89.56
21395;BME280;10858;42.714;23.180;2023-05-10T05:39:46;94658.41;;;8.86;90.26
21395;BME280;10858;42.714;23.180;2023-05-10T05:42:12;94651.31;;;8.76;91.51
21395;BME280;10858;42.714;23.180;2023-05-10T05:44:39;94650.34;;;8.66;92.63
21395;BME280;10858;42.714;23.180;2023-05-10T05:47:06;94649.91;;;8.94;93.06
21395;BME280;10858;42.714;23.180;2023-05-10T05:49:32;94654.22;;;8.84;92.55
21395;BME280;10858;42.714;23.180;2023-05-10T05:52:00;94661.66;;;9.12;92.36
21395;BME280;10858;42.714;23.180;2023-05-10T05:54:27;94653.84;;;8.88;91.69
21395;BME280;10858;42.714;23.180;2023-05-10T05:57:00;94667.19;;;8.87;92.68
21395;BME280;10858;42.714;23.180;2023-05-10T05:59:27;94666.97;;;9.12;92.25
21395;BME280;10858;42.714;23.180;2023-05-10T06:01:53;94671.16;;;8.81;90.47
21395;BME280;10858;42.714;23.180;2023-05-10T06:04:19;94673.72;;;8.94;92.51
21395;BME280;10858;42.714;23.180;2023-05-10T06:06:46;94671.06;;;9.16;92.86
21395;BME280;10858;42.714;23.180;2023-05-10T06:09:12;94666.25;;;8.99;91.52
21395;BME280;10858;42.714;23.180;2023-05-10T06:11:38;94673.25;;;9.33;92.26
21395;BME280;10858;42.714;23.180;2023-05-10T06:14:05;94677.47;;;9.35;91.82
21395;BME280;10858;42.714;23.180;2023-05-10T06:16:36;94678.91;;;9.39;91.75
21395;BME280;10858;42.714;23.180;2023-05-10T06:19:02;94671.69;;;9.19;93.20
21395;BME280;10858;42.714;23.180;2023-05-10T06:21:28;94673.09;;;9.57;93.27
21395;BME280;10858;42.714;23.180;2023-05-10T06:23:55;94666.56;;;9.83;91.41
21395;BME280;10858;42.714;23.180;2023-05-10T06:26:22;94672.69;;;9.83;91.49
21395;BME280;10858;42.714;23.180;2023-05-10T06:28:48;94671.00;;;9.93;90.57
21395;BME280;10858;42.714;23.180;2023-05-10T06:31:15;94677.22;;;10.14;90.10
21395;BME280;10858;42.714;23.180;2023-05-10T06:33:41;94679.34;;;9.78;90.51
21395;BME280;10858;42.714;23.180;2023-05-10T06:36:08;94680.59;;;9.94;90.69
21395;BME280;10858;42.714;23.180;2023-05-10T06:38:34;94681.50;;;9.73;89.88
21395;BME280;10858;42.714;23.180;2023-05-10T06:41:00;94688.59;;;9.83;90.18
21395;BME280;10858;42.714;23.180;2023-05-10T06:43:26;94683.47;;;9.60;90.79
21395;BME280;10858;42.714;23.180;2023-05-10T06:45:54;94693.91;;;9.50;91.73
21395;BME280;10858;42.714;23.180;2023-05-10T06:48:20;94686.22;;;9.69;91.89
21395;BME280;10858;42.714;23.180;2023-05-10T06:50:47;94685.94;;;9.72;91.08
21395;BME280;10858;42.714;23.180;2023-05-10T06:53:13;94687.03;;;9.92;90.79
21395;BME280;10858;42.714;23.180;2023-05-10T06:55:39;94689.53;;;10.15;89.32
21395;BME280;10858;42.714;23.180;2023-05-10T06:58:06;94694.81;;;10.04;88.92
21395;BME280;10858;42.714;23.180;2023-05-10T07:00:32;94696.69;;;9.82;89.13
21395;BME280;10858;42.714;23.180;2023-05-10T07:02:58;94696.31;;;9.75;88.90
21395;BME280;10858;42.714;23.180;2023-05-10T07:05:25;94699.22;;;9.61;89.11
21395;BME280;10858;42.714;23.180;2023-05-10T07:07:53;94698.47;;;9.81;88.88
21395;BME280;10858;42.714;23.180;2023-05-10T07:10:19;94691.69;;;10.10;88.36
21395;BME280;10858;42.714;23.180;2023-05-10T07:12:46;94695.47;;;9.86;88.46
21395;BME280;10858;42.714;23.180;2023-05-10T07:15:12;94696.94;;;9.57;89.29
21395;BME280;10858;42.714;23.180;2023-05-10T07:17:38;94694.00;;;9.93;89.88
21395;BME280;10858;42.714;23.180;2023-05-10T07:20:05;94691.69;;;9.88;86.64
21395;BME280;10858;42.714;23.180;2023-05-10T07:22:31;94701.03;;;9.72;88.06
21395;BME280;10858;42.714;23.180;2023-05-10T07:25:00;94691.91;;;10.07;86.96
21395;BME280;10858;42.714;23.180;2023-05-10T07:27:27;94701.94;;;9.93;85.55
21395;BME280;10858;42.714;23.180;2023-05-10T07:29:53;94698.69;;;10.11;86.00
21395;BME280;10858;42.714;23.180;2023-05-10T07:32:20;94695.41;;;10.19;85.37
21395;BME280;10858;42.714;23.180;2023-05-10T07:34:47;94690.66;;;10.54;85.43
21395;BME280;10858;42.714;23.180;2023-05-10T07:37:13;94701.94;;;10.47;85.10
21395;BME280;10858;42.714;23.180;2023-05-10T07:39:40;94697.75;;;10.65;83.29
21395;BME280;10858;42.714;23.180;2023-05-10T07:42:06;94701.63;;;10.61;82.11
21395;BME280;10858;42.714;23.180;2023-05-10T07:44:32;94707.00;;;10.50;81.80
21395;BME280;10858;42.714;23.180;2023-05-10T07:46:58;94708.38;;;10.33;83.72
21395;BME280;10858;42.714;23.180;2023-05-10T07:49:25;94708.75;;;10.28;83.54
21395;BME280;10858;42.714;23.180;2023-05-10T07:51:51;94701.50;;;10.83;81.75
21395;BME280;10858;42.714;23.180;2023-05-10T07:54:17;94701.88;;;10.78;81.48
21395;BME280;10858;42.714;23.180;2023-05-10T07:56:44;94707.13;;;10.69;81.87
21395;BME280;10858;42.714;23.180;2023-05-10T07:59:16;94708.91;;;10.79;82.07
21395;BME280;10858;42.714;23.180;2023-05-10T08:01:43;94709.16;;;10.97;80.78
21395;BME280;10858;42.714;23.180;2023-05-10T08:04:09;94709.03;;;11.19;79.63
21395;BME280;10858;42.714;23.180;2023-05-10T08:06:36;94702.25;;;11.56;79.86
21395;BME280;10858;42.714;23.180;2023-05-10T08:09:02;94709.25;;;11.37;80.30
21395;BME280;10858;42.714;23.180;2023-05-10T08:11:28;94701.22;;;11.78;80.57
21395;BME280;10858;42.714;23.180;2023-05-10T08:13:55;94708.25;;;11.58;77.69
21395;BME280;10858;42.714;23.180;2023-05-10T08:16:21;94706.25;;;11.51;81.06
21395;BME280;10858;42.714;23.180;2023-05-10T08:18:47;94710.03;;;11.48;79.80
21395;BME280;10858;42.714;23.180;2023-05-10T08:21:15;94706.97;;;11.83;81.88
21395;BME280;10858;42.714;23.180;2023-05-10T08:23:42;94710.06;;;11.88;80.08
21395;BME280;10858;42.714;23.180;2023-05-10T08:26:09;94713.63;;;12.08;78.32
21395;BME280;10858;42.714;23.180;2023-05-10T08:28:36;94709.59;;;11.73;80.21
21395;BME280;10858;42.714;23.180;2023-05-10T08:31:02;94710.28;;;12.15;78.73
21395;BME280;10858;42.714;23.180;2023-05-10T08:33:28;94704.06;;;11.95;77.58
21395;BME280;10858;42.714;23.180;2023-05-10T08:35:55;94710.50;;;11.63;79.29
21395;BME280;10858;42.714;23.180;2023-05-10T08:38:21;94708.19;;;11.69;79.78
21395;BME280;10858;42.714;23.180;2023-05-10T08:40:49;94717.13;;;12.08;78.99
21395;BME280;10858;42.714;23.180;2023-05-10T08:43:16;94724.72;;;11.82;77.70
21395;BME280;10858;42.714;23.180;2023-05-10T09:50:38;94708.88;;;13.54;71.61
21395;BME280;10858;42.714;23.180;2023-05-10T09:53:05;94710.56;;;14.46;67.60
21395;BME280;10858;42.714;23.180;2023-05-10T09:55:44;94704.47;;;14.89;63.33
21395;BME280;10858;42.714;23.180;2023-05-10T10:01:28;94702.81;;;13.99;66.38
21395;BME280;10858;42.714;23.180;2023-05-10T10:03:54;94697.81;;;13.86;65.65
21395;BME280;10858;42.714;23.180;2023-05-10T10:06:23;94701.69;;;14.19;67.73
21395;BME280;10858;42.714;23.180;2023-05-10T10:08:51;94701.16;;;13.88;65.36
21395;BME280;10858;42.714;23.180;2023-05-10T10:11:17;94700.72;;;13.93;68.04
21395;BME280;10858;42.714;23.180;2023-05-10T10:13:43;94698.03;;;14.47;66.33
21395;BME280;10858;42.714;23.180;2023-05-10T10:16:09;94695.34;;;14.47;62.62
21395;BME280;10858;42.714;23.180;2023-05-10T10:18:39;94689.00;;;14.03;65.56
21395;BME280;10858;42.714;23.180;2023-05-10T10:21:08;94688.22;;;13.93;65.01
21395;BME280;10858;42.714;23.180;2023-05-10T10:23:38;94689.13;;;13.38;67.30
21395;BME280;10858;42.714;23.180;2023-05-10T10:26:05;94693.75;;;13.36;67.62
21395;BME280;10858;42.714;23.180;2023-05-10T10:31:28;94696.59;;;13.15;67.62
21395;BME280;10858;42.714;23.180;2023-05-10T10:34:07;94692.69;;;13.19;67.22
21395;BME280;10858;42.714;23.180;2023-05-10T10:36:45;94694.63;;;13.27;70.17
21395;BME280;10858;42.714;23.180;2023-05-10T10:39:12;94691.28;;;13.15;66.70
21395;BME280;10858;42.714;23.180;2023-05-10T10:41:51;94700.63;;;13.75;66.22
21395;BME280;10858;42.714;23.180;2023-05-10T10:44:36;94701.97;;;13.98;67.81
21395;BME280;10858;42.714;23.180;2023-05-10T10:52:26;94709.25;;;13.59;68.50
21395;BME280;10858;42.714;23.180;2023-05-10T10:55:01;94704.09;;;13.58;65.76
21395;BME280;10858;42.714;23.180;2023-05-10T10:57:31;94698.91;;;13.56;68.17
21395;BME280;10858;42.714;23.180;2023-05-10T11:00:20;94696.84;;;13.31;67.29
21395;BME280;10858;42.714;23.180;2023-05-10T11:02:49;94687.34;;;13.00;69.39
21395;BME280;10858;42.714;23.180;2023-05-10T11:08:32;94693.91;;;13.81;68.29
21395;BME280;10858;42.714;23.180;2023-05-10T11:16:25;94689.41;;;14.35;66.87
21395;BME280;10858;42.714;23.180;2023-05-10T11:19:07;94693.38;;;14.49;64.13
21395;BME280;10858;42.714;23.180;2023-05-10T11:21:45;94686.91;;;15.04;64.12
21395;BME280;10858;42.714;23.180;2023-05-10T11:24:26;94681.09;;;15.52;62.75
21395;BME280;10858;42.714;23.180;2023-05-10T11:26:53;94689.97;;;15.53;62.54
21395;BME280;10858;42.714;23.180;2023-05-10T11:29:20;94691.34;;;14.78;62.44
21395;BME280;10858;42.714;23.180;2023-05-10T11:31:47;94687.19;;;13.77;66.38
21395;BME280;10858;42.714;23.180;2023-05-10T11:34:28;94687.19;;;13.77;66.55
21395;BME280;10858;42.714;23.180;2023-05-10T11:36:56;94687.78;;;13.71;67.32
21395;BME280;10858;42.714;23.180;2023-05-10T11:39:27;94692.41;;;13.96;65.06
21395;BME280;10858;42.714;23.180;2023-05-10T11:41:54;94690.34;;;13.53;66.91
21395;BME280;10858;42.714;23.180;2023-05-10T11:44:20;94691.13;;;13.73;65.46
21395;BME280;10858;42.714;23.180;2023-05-10T11:46:46;94680.59;;;13.34;66.67
21395;BME280;10858;42.714;23.180;2023-05-10T11:49:12;94664.19;;;13.29;67.84
21395;BME280;10858;42.714;23.180;2023-05-10T11:51:39;94673.09;;;13.47;68.45
21395;BME280;10858;42.714;23.180;2023-05-10T11:54:10;94682.53;;;13.42;68.64
21395;BME280;10858;42.714;23.180;2023-05-10T11:56:40;94678.38;;;13.20;68.11
21395;BME280;10858;42.714;23.180;2023-05-10T11:59:07;94675.50;;;13.50;68.41
21395;BME280;10858;42.714;23.180;2023-05-10T12:01:34;94673.28;;;13.73;68.19
21395;BME280;10858;42.714;23.180;2023-05-10T12:04:01;94678.88;;;13.80;67.04
21395;BME280;10858;42.714;23.180;2023-05-10T12:06:29;94678.28;;;13.86;66.56
21395;BME280;10858;42.714;23.180;2023-05-10T12:08:57;94673.06;;;13.94;66.44
21395;BME280;10858;42.714;23.180;2023-05-10T12:11:28;94673.78;;;13.86;66.41
21395;BME280;10858;42.714;23.180;2023-05-10T12:13:55;94670.34;;;14.30;66.62
21395;BME280;10858;42.714;23.180;2023-05-10T12:16:24;94672.41;;;14.27;65.09
21395;BME280;10858;42.714;23.180;2023-05-10T12:18:51;94661.72;;;14.89;65.58
21395;BME280;10858;42.714;23.180;2023-05-10T12:21:19;94666.84;;;15.00;64.26
21395;BME280;10858;42.714;23.180;2023-05-10T12:23:48;94669.31;;;15.19;62.77
21395;BME280;10858;42.714;23.180;2023-05-10T12:26:14;94671.38;;;14.65;63.21
21395;BME280;10858;42.714;23.180;2023-05-10T12:28:41;94670.44;;;14.74;63.93
21395;BME280;10858;42.714;23.180;2023-05-10T12:31:07;94659.00;;;14.46;64.69
21395;BME280;10858;42.714;23.180;2023-05-10T12:33:38;94663.81;;;14.60;65.79
21395;BME280;10858;42.714;23.180;2023-05-10T12:36:05;94668.69;;;15.25;64.09
21395;BME280;10858;42.714;23.180;2023-05-10T12:38:40;94660.56;;;15.53;62.75
21395;BME280;10858;42.714;23.180;2023-05-10T12:41:16;94656.84;;;14.32;63.93
21395;BME280;10858;42.714;23.180;2023-05-10T12:43:42;94663.03;;;13.78;65.33
21395;BME280;10858;42.714;23.180;2023-05-10T12:46:14;94660.47;;;13.86;67.27
21395;BME280;10858;42.714;23.180;2023-05-10T12:48:42;94654.66;;;13.63;67.41
21395;BME280;10858;42.714;23.180;2023-05-10T12:51:08;94654.44;;;13.47;66.53
21395;BME280;10858;42.714;23.180;2023-05-10T12:53:35;94654.22;;;13.31;67.23
21395;BME280;10858;42.714;23.180;2023-05-10T12:56:02;94652.63;;;12.92;69.34
21395;BME280;10858;42.714;23.180;2023-05-10T12:58:28;94638.28;;;13.03;69.15
21395;BME280;10858;42.714;23.180;2023-05-10T13:00:55;94635.38;;;13.06;69.47
21395;BME280;10858;42.714;23.180;2023-05-10T13:03:22;94639.69;;;13.62;70.06
21395;BME280;10858;42.714;23.180;2023-05-10T13:05:48;94627.34;;;13.15;66.96
21395;BME280;10858;42.714;23.180;2023-05-10T13:08:15;94627.66;;;13.12;68.23
21395;BME280;10858;42.714;23.180;2023-05-10T13:10:41;94627.72;;;13.67;67.42
21395;BME280;10858;42.714;23.180;2023-05-10T13:13:07;94618.88;;;13.66;66.78
21395;BME280;10858;42.714;23.180;2023-05-10T13:15:34;94628.06;;;13.54;66.90
21395;BME280;10858;42.714;23.180;2023-05-10T13:18:01;94625.59;;;13.33;68.25
21395;BME280;10858;42.714;23.180;2023-05-10T13:20:27;94627.34;;;13.15;67.64
21395;BME280;10858;42.714;23.180;2023-05-10T13:22:53;94616.00;;;13.13;67.63
21395;BME280;10858;42.714;23.180;2023-05-10T13:25:20;94613.13;;;13.34;68.61
21395;BME280;10858;42.714;23.180;2023-05-10T13:27:46;94613.34;;;13.50;65.98
21395;BME280;10858;42.714;23.180;2023-05-10T13:30:12;94612.50;;;13.49;67.33
21395;BME280;10858;42.714;23.180;2023-05-10T13:32:38;94610.97;;;13.10;67.89
21395;BME280;10858;42.714;23.180;2023-05-10T13:35:05;94608.06;;;12.85;70.84
21395;BME280;10858;42.714;23.180;2023-05-10T13:37:32;94609.00;;;13.12;70.89
21395;BME280;10858;42.714;23.180;2023-05-10T13:40:01;94601.78;;;12.76;68.97
21395;BME280;10858;42.714;23.180;2023-05-10T13:42:27;94603.19;;;12.61;70.25
21395;BME280;10858;42.714;23.180;2023-05-10T13:44:54;94599.94;;;12.67;71.02
21395;BME280;10858;42.714;23.180;2023-05-10T13:47:20;94590.19;;;12.58;69.85
21395;BME280;10858;42.714;23.180;2023-05-10T13:49:47;94594.66;;;12.48;70.81
21395;BME280;10858;42.714;23.180;2023-05-10T13:52:13;94592.41;;;12.53;70.93
21395;BME280;10858;42.714;23.180;2023-05-10T13:54:40;94592.28;;;12.64;71.14
21395;BME280;10858;42.714;23.180;2023-05-10T13:57:06;94599.38;;;12.73;71.19
21395;BME280;10858;42.714;23.180;2023-05-10T13:59:32;94600.75;;;12.96;69.88
21395;BME280;10858;42.714;23.180;2023-05-10T14:01:59;94604.19;;;12.60;70.02
21395;BME280;10858;42.714;23.180;2023-05-10T14:04:28;94599.97;;;12.76;70.42
21395;BME280;10858;42.714;23.180;2023-05-10T14:06:54;94608.38;;;12.62;70.01
21395;BME280;10858;42.714;23.180;2023-05-10T14:09:21;94599.38;;;12.73;71.15
21395;BME280;10858;42.714;23.180;2023-05-10T14:11:47;94610.31;;;13.35;69.90
21395;BME280;10858;42.714;23.180;2023-05-10T14:14:14;94614.94;;;13.33;68.52
21395;BME280;10858;42.714;23.180;2023-05-10T14:16:44;94610.81;;;12.93;69.53
21395;BME280;10858;42.714;23.180;2023-05-10T14:19:11;94607.13;;;12.38;71.24
21395;BME280;10858;42.714;23.180;2023-05-10T14:21:37;94607.97;;;12.48;72.34
21395;BME280;10858;42.714;23.180;2023-05-10T14:24:04;94598.69;;;12.71;71.31
21395;BME280;10858;42.714;23.180;2023-05-10T14:26:30;94609.91;;;12.27;71.49
21395;BME280;10858;42.714;23.180;2023-05-10T14:28:57;94608.66;;;12.31;72.37
21395;BME280;10858;42.714;23.180;2023-05-10T14:31:23;94603.31;;;12.69;70.73
21395;BME280;10858;42.714;23.180;2023-05-10T14:33:51;94597.75;;;12.34;71.88
21395;BME280;10858;42.714;23.180;2023-05-10T14:36:18;94602.78;;;12.37;72.77
21395;BME280;10858;42.714;23.180;2023-05-10T14:38:44;94602.25;;;12.52;72.29
21395;BME280;10858;42.714;23.180;2023-05-10T14:41:10;94600.94;;;12.47;72.55
21395;BME280;10858;42.714;23.180;2023-05-10T14:43:40;94601.38;;;12.61;70.96